TimeCEST,TemperatureF,Dew PointF,Humidity,Sea Level PressureIn,VisibilityMPH,Wind Direction,Wind SpeedMPH,Gust SpeedMPH,PrecipitationIn,Events,Conditions,WindDirDegrees,DateUTC
12:00 AM,34,33,94,,0,ENE,4.6,,,Rain,Light Rain,70,2013-07-10 22:00:00
12:55 AM,33.8,30.2,87,30.39,5.0,NE,11.5,-,N/A,,Partly Cloudy,50,2013-07-10 22:55:00
1:00 AM,33,29,82,,5,NE,11.5,,,,Scattered Clouds,50,2013-07-10 23:00:00
1:55 AM,35.6,24.8,65,30.36,-9999.0,East,4.6,-,N/A,,Clear,90,2013-07-10 23:55:00
2:00 AM,35,25,56,,6,East,4.6,,,,Partly Cloudy,90,2013-07-11 00:00:00
2:55 AM,35.6,24.8,65,30.36,6.2,SE,2.3,-,N/A,,Partly Cloudy,130,2013-07-11 00:55:00
3:00 AM,35,25,56,,6,SE,2.3,,,,Scattered Clouds,130,2013-07-11 01:00:00
3:55 AM,33.8,26.6,75,30.36,6.2,NNE,8.1,-,N/A,,Partly Cloudy,30,2013-07-11 01:55:00
4:00 AM,34,26,64,,6,NNE,8.1,,,,Scattered Clouds,30,2013-07-11 02:00:00
4:55 AM,33.8,28.4,81,30.36,6.2,NNW,2.3,-,N/A,,Scattered Clouds,330,2013-07-11 02:55:00
5:00 AM,34,28,69,,9,NNW,2.3,,,,Partly Cloudy,330,2013-07-11 03:00:00
5:55 AM,33.8,23.0,65,30.33,6.2,ENE,4.6,-,N/A,,Partly Cloudy,60,2013-07-11 03:55:00
6:00 AM,34,22,50,,12,ENE,4.6,,,,Scattered Clouds,60,2013-07-11 04:00:00
6:55 AM,33.8,24.8,70,30.36,-9999.0,NE,9.2,-,N/A,,Clear,40,2013-07-11 04:55:00
7:00 AM,35,25,55,,37,NE,9.2,,,,Clear,40,2013-07-11 05:00:00
7:55 AM,35.6,24.8,65,30.33,-9999.0,NE,12.7,-,N/A,,Clear,50,2013-07-11 05:55:00
8:00 AM,36,24,50,,37,NE,12.7,,,,Clear,50,2013-07-11 06:00:00
8:55 AM,35.6,26.6,70,30.33,-9999.0,ENE,13.8,-,N/A,,Clear,60,2013-07-11 06:55:00
9:00 AM,35,27,62,,37,ENE,13.8,,,,Clear,60,2013-07-11 07:00:00
9:55 AM,35.6,23.0,60,30.30,-9999.0,ENE,12.7,-,N/A,,Clear,60,2013-07-11 07:55:00
10:00 AM,36,23,47,,44,ENE,12.7,,,,Clear,60,2013-07-11 08:00:00
10:55 AM,35.6,24.8,65,30.36,6.2,NE,9.2,-,N/A,,Partly Cloudy,40,2013-07-11 08:55:00
11:00 AM,36,25,53,,37,NE,9.2,,,,Scattered Clouds,40,2013-07-11 09:00:00
11:55 AM,37.4,21.2,52,30.39,6.2,NNE,8.1,-,N/A,,Partly Cloudy,20,2013-07-11 09:55:00
12:00 PM,37,21,40,,25,NNE,8.1,,,,Scattered Clouds,20,2013-07-11 10:00:00
12:55 PM,37.4,17.6,45,30.36,6.2,NE,8.1,-,N/A,,Partly Cloudy,40,2013-07-11 10:55:00
1:00 PM,37,18,32,,25,NE,8.1,,,,Scattered Clouds,40,2013-07-11 11:00:00
1:55 PM,39.2,19.4,45,30.39,6.2,ENE,3.5,-,N/A,,Scattered Clouds,70,2013-07-11 11:55:00
2:00 PM,39,19,30,,19,ENE,3.5,,,,Partly Cloudy,70,2013-07-11 12:00:00
2:55 PM,39.2,21.2,49,30.39,6.2,NE,5.8,-,N/A,,Scattered Clouds,50,2013-07-11 12:55:00
3:00 PM,39,22,37,,19,NE,5.8,,,,Partly Cloudy,50,2013-07-11 13:00:00
3:55 PM,41.0,23.0,49,30.39,6.2,NE,4.6,-,N/A,,Partly Cloudy,40,2013-07-11 13:55:00
4:00 PM,40,23,38,,25,NE,4.6,,,,Scattered Clouds,40,2013-07-11 14:00:00
4:55 PM,41.0,24.8,53,30.39,6.2,NNE,5.8,-,N/A,,Partly Cloudy,30,2013-07-11 14:55:00
5:00 PM,39,25,44,,19,NNE,9.2,,,,Scattered Clouds,30,2013-07-11 15:00:00
5:55 PM,39.2,23.0,52,30.39,6.2,NNE,9.2,-,N/A,,Partly Cloudy,20,2013-07-11 15:55:00
6:00 PM,39,25,44,,19,NNE,9.2,,,,Scattered Clouds,30,2013-07-11 16:00:00
6:55 PM,39.2,24.8,56,30.39,6.2,NNE,9.2,-,N/A,,Partly Cloudy,30,2013-07-11 16:55:00
7:00 PM,39,25,44,,19,NNE,9.2,,,,Scattered Clouds,30,2013-07-11 17:00:00
7:55 PM,39.2,26.6,61,30.39,6.2,ENE,8.1,-,N/A,,Partly Cloudy,60,2013-07-11 17:55:00
8:00 PM,38,26,50,,31,ENE,8.1,,,,Scattered Clouds,60,2013-07-11 18:00:00
8:55 PM,37.4,26.6,65,30.39,6.2,ENE,11.5,-,N/A,,Partly Cloudy,60,2013-07-11 18:55:00
9:00 PM,38,27,52,,16,ENE,11.5,,,,Scattered Clouds,60,2013-07-11 19:00:00
9:55 PM,37.4,28.4,70,30.39,-9999.0,NE,15.0,-,N/A,,Clear,50,2013-07-11 19:55:00
10:55 PM,35.6,30.2,81,30.42,-9999.0,NNE,5.8,-,N/A,,Clear,20,2013-07-11 20:55:00
11:00 PM,36,6,16,,7,NE,9.2,,,,,50,2013-07-11 21:00:00
11:55 PM,35.6,28.4,75,30.42,-9999.0,NE,5.8,-,N/A,,Clear,40,2013-07-11 21:55:00